createdAt,value
2018-06-21T00:00:07.177Z,80.36
2018-06-21T00:03:11.495Z,79.74
2018-06-21T00:06:16.814Z,80.32
2018-06-21T00:09:21.219Z,79.61
2018-06-21T00:12:25.498Z,79.97
2018-06-21T00:15:30.301Z,79.62
2018-06-21T00:18:35.129Z,79.57
2018-06-21T00:21:39.417Z,80.11
2018-06-21T00:24:43.676Z,79.53
2018-06-21T00:27:48.176Z,79.86
2018-06-21T00:30:53.503Z,79.70
2018-06-21T00:33:57.832Z,79.64
2018-06-21T00:37:02.557Z,80.42
2018-06-21T00:40:06.892Z,80.52
2018-06-21T00:43:11.177Z,80.91
2018-06-21T00:46:16.301Z,80.68
2018-06-21T00:49:20.589Z,80.57
2018-06-21T00:52:25.011Z,79.70
2018-06-21T00:55:46.255Z,80.08
2018-06-21T00:58:50.513Z,80.28
2018-06-21T01:01:54.854Z,80.46
2018-06-21T01:04:59.411Z,80.36
2018-06-21T01:08:03.868Z,80.08
2018-06-21T01:11:08.417Z,79.82
2018-06-21T01:14:12.735Z,80.01
2018-06-21T01:17:17.081Z,80.13
2018-06-21T01:20:22.244Z,80.24
2018-06-21T01:23:26.638Z,80.20
2018-06-21T01:26:30.944Z,79.45
2018-06-21T01:29:35.880Z,79.64
2018-06-21T01:32:40.360Z,80.36
2018-06-21T01:35:44.645Z,80.26
2018-06-21T01:38:48.965Z,80.11
2018-06-21T01:41:53.244Z,80.37
2018-06-21T01:44:58.239Z,80.73
2018-06-21T01:48:02.512Z,80.18
2018-06-21T01:51:08.176Z,80.25
2018-06-21T01:54:12.730Z,79.92
2018-06-21T01:57:17.049Z,80.18
2018-06-21T02:00:21.653Z,80.30
2018-06-21T02:03:25.963Z,80.83
2018-06-21T02:06:30.410Z,79.94
2018-06-21T02:09:34.692Z,80.95
2018-06-21T02:12:39.563Z,81.12
2018-06-21T02:15:43.849Z,80.86
2018-06-21T02:18:48.169Z,81.10
2018-06-21T02:21:52.487Z,81.10
2018-06-21T02:24:56.784Z,81.51
2018-06-21T02:28:01.130Z,81.65
2018-06-21T02:31:05.453Z,81.93
2018-06-21T02:34:09.784Z,82.05
2018-06-21T02:37:14.149Z,81.87
2018-06-21T02:40:18.501Z,81.67
2018-06-21T02:43:22.865Z,81.00
2018-06-21T02:46:27.189Z,81.50
2018-06-21T02:49:31.520Z,81.35
2018-06-21T02:52:35.863Z,81.74
2018-06-21T02:55:40.273Z,81.57
2018-06-21T02:58:44.566Z,81.76
2018-06-21T03:01:48.891Z,81.53
2018-06-21T03:04:53.182Z,81.60
2018-06-21T03:07:57.537Z,82.26
2018-06-21T03:11:02.307Z,82.71
2018-06-21T03:14:06.671Z,82.08
2018-06-21T03:17:11.217Z,83.07
2018-06-21T03:20:15.708Z,82.48
2018-06-21T03:23:21.840Z,82.39
2018-06-21T03:26:26.175Z,82.36
2018-06-21T03:29:30.581Z,82.38
2018-06-21T03:32:34.911Z,82.34
2018-06-21T03:35:39.340Z,82.89
2018-06-21T03:38:43.692Z,82.45
2018-06-21T03:41:48.125Z,82.63
2018-06-21T03:44:52.582Z,82.08
2018-06-21T03:47:56.949Z,82.84
2018-06-21T03:51:01.313Z,82.52
2018-06-21T03:54:05.643Z,81.86
2018-06-21T03:57:10.059Z,81.99
2018-06-21T04:00:14.417Z,81.68
2018-06-21T04:03:18.720Z,81.49
2018-06-21T04:06:23.251Z,81.02
2018-06-21T04:09:27.769Z,80.82
2018-06-21T04:12:32.264Z,81.38
2018-06-21T04:15:36.714Z,80.55
2018-06-21T04:18:41.182Z,79.36
2018-06-21T04:21:45.618Z,78.55
2018-06-21T04:24:50.086Z,78.92
2018-06-21T04:27:55.030Z,79.83
2018-06-21T04:31:00.090Z,79.50
2018-06-21T04:34:04.705Z,79.46
2018-06-21T04:37:09.626Z,78.45
2018-06-21T04:40:13.933Z,78.50
2018-06-21T04:43:18.267Z,77.48
2018-06-21T04:46:23.017Z,77.35
2018-06-21T04:49:27.363Z,76.67
2018-06-21T04:52:31.843Z,76.84
2018-06-21T04:55:36.096Z,76.22
2018-06-21T04:58:40.551Z,75.63
2018-06-21T05:01:44.935Z,75.61
2018-06-21T05:04:49.259Z,75.47
2018-06-21T05:07:54.017Z,75.64
2018-06-21T05:10:58.378Z,75.37
2018-06-21T05:14:03.304Z,75.14
2018-06-21T05:17:08.251Z,75.56
2018-06-21T05:20:13.828Z,74.96
2018-06-21T05:23:18.537Z,75.57
2018-06-21T05:26:24.573Z,74.48
2018-06-21T05:29:29.280Z,74.78
2018-06-21T05:32:33.994Z,74.91
2018-06-21T05:35:38.632Z,74.14
2018-06-21T05:38:43.874Z,74.16
2018-06-21T05:41:48.311Z,74.05
2018-06-21T05:44:53.569Z,73.66
2018-06-21T05:48:02.165Z,73.52
2018-06-21T05:51:06.846Z,72.75
2018-06-21T05:54:11.818Z,71.94
2018-06-21T05:57:16.579Z,71.27
2018-06-21T06:00:21.121Z,70.95
2018-06-21T06:03:25.702Z,68.36
2018-06-21T06:06:29.954Z,63.95
2018-06-21T06:09:34.301Z,60.56
2018-06-21T06:12:39.068Z,56.67
2018-06-21T06:15:43.437Z,55.81
2018-06-21T06:18:47.782Z,50.94
2018-06-21T06:21:52.226Z,52.82
2018-06-21T06:24:56.697Z,50.37
2018-06-21T06:28:01.389Z,48.34
2018-06-21T06:31:05.723Z,48.83
2018-06-21T06:34:10.336Z,47.09
2018-06-21T06:37:14.692Z,45.97
2018-06-21T06:40:19.016Z,45.38
2018-06-21T06:43:23.724Z,45.85
2018-06-21T06:46:28.158Z,46.64
2018-06-21T06:49:32.601Z,44.33
2018-06-21T06:52:36.939Z,44.99
2018-06-21T06:55:42.346Z,44.87
2018-06-21T06:58:47.371Z,44.62
2018-06-21T07:01:51.774Z,44.05
2018-06-21T07:04:56.111Z,44.34
2018-06-21T07:08:00.534Z,44.65
2018-06-21T07:11:05.217Z,48.60
2018-06-21T07:14:09.584Z,43.76
2018-06-21T07:17:13.900Z,43.70
2018-06-21T07:20:18.998Z,45.26
2018-06-21T07:23:23.291Z,46.33
2018-06-21T07:26:27.780Z,46.59
2018-06-21T07:29:32.101Z,47.72
2018-06-21T07:32:36.680Z,45.28
2018-06-21T07:35:40.994Z,45.72
2018-06-21T07:38:46.425Z,44.85
2018-06-21T07:41:50.755Z,43.48
2018-06-21T07:44:55.089Z,46.59
2018-06-21T07:47:59.382Z,45.16
2018-06-21T07:51:03.985Z,47.23
2018-06-21T07:54:09.354Z,46.94
2018-06-21T07:57:13.625Z,49.14
2018-06-21T08:00:17.891Z,48.20
2018-06-21T08:03:22.265Z,48.44
2018-06-21T08:06:27.095Z,48.45
2018-06-21T08:09:31.430Z,46.63
2018-06-21T08:12:35.844Z,46.10
2018-06-21T08:15:40.338Z,47.48
2018-06-21T08:18:45.234Z,53.08
2018-06-21T08:21:49.550Z,49.84
2018-06-21T08:24:53.915Z,47.09
2018-06-21T08:27:58.303Z,51.01
2018-06-21T08:31:02.625Z,48.54
2018-06-21T08:34:06.922Z,47.56
2018-06-21T08:37:11.338Z,48.78
2018-06-21T08:40:16.199Z,51.76
2018-06-21T08:43:20.595Z,47.34
2018-06-21T08:46:25.006Z,46.98
2018-06-21T08:49:29.520Z,45.60
2018-06-21T08:52:33.889Z,47.47
2018-06-21T08:55:38.820Z,44.78
2018-06-21T08:58:43.869Z,44.76
2018-06-21T09:01:48.211Z,45.48
2018-06-21T09:04:52.640Z,44.86
2018-06-21T09:07:57.311Z,45.70
2018-06-21T09:11:01.679Z,47.20
2018-06-21T09:14:07.030Z,50.05
2018-06-21T09:17:11.350Z,48.64
2018-06-21T09:20:15.841Z,47.94
2018-06-21T09:23:20.267Z,50.33
2018-06-21T09:26:24.618Z,47.66
2018-06-21T09:29:29.105Z,46.22
2018-06-21T09:32:33.551Z,49.19
2018-06-21T09:35:37.851Z,50.33
2018-06-21T09:39:51.829Z,52.94
2018-06-21T09:43:01.513Z,50.34
2018-06-21T09:46:11.070Z,49.64
2018-06-21T09:49:15.362Z,48.70
2018-06-21T09:52:19.965Z,47.98
2018-06-21T09:55:24.278Z,48.73
2018-06-21T09:58:28.885Z,50.00
2018-06-21T10:01:33.202Z,49.26
2018-06-21T10:04:37.564Z,46.35
2018-06-21T10:07:42.503Z,46.60
2018-06-21T10:10:47.761Z,46.09
2018-06-21T10:13:52.721Z,46.12
2018-06-21T10:16:57.032Z,44.36
2018-06-21T10:20:01.337Z,45.20
2018-06-21T10:23:05.728Z,42.96
2018-06-21T10:26:10.370Z,45.98
2018-06-21T10:29:14.679Z,42.65
2018-06-21T10:32:19.513Z,45.03
2018-06-21T10:35:24.012Z,41.58
2018-06-21T10:38:28.409Z,42.78
2018-06-21T10:41:32.701Z,44.44
2018-06-21T10:44:37.229Z,45.04
2018-06-21T10:47:41.590Z,47.48
2018-06-21T10:50:45.951Z,47.98
2018-06-21T10:53:50.422Z,51.07
2018-06-21T10:56:54.814Z,47.68
2018-06-21T10:59:59.134Z,48.30
2018-06-21T11:03:04.285Z,47.81
2018-06-21T11:06:08.741Z,47.50
2018-06-21T11:09:13.150Z,45.62
2018-06-21T11:12:18.225Z,46.36
2018-06-21T11:15:23.177Z,45.86
2018-06-21T11:18:27.613Z,48.39
2018-06-21T11:21:31.938Z,44.72
2018-06-21T11:24:36.744Z,45.78
2018-06-21T11:27:41.151Z,43.29
2018-06-21T11:30:45.996Z,48.00
2018-06-21T11:33:50.376Z,48.28
2018-06-21T11:36:54.726Z,47.84
2018-06-21T11:40:00.134Z,46.38
2018-06-21T11:43:04.559Z,47.03
2018-06-21T11:46:08.894Z,46.00
2018-06-21T11:49:13.423Z,45.01
2018-06-21T11:52:17.776Z,45.55
2018-06-21T11:55:22.225Z,44.19
2018-06-21T11:58:26.533Z,44.11
2018-06-21T12:01:30.605Z,43.46
2018-06-21T12:04:34.966Z,45.00
2018-06-21T12:07:39.598Z,46.22
2018-06-21T12:10:43.934Z,44.94
2018-06-21T12:13:48.929Z,44.67
2018-06-21T12:16:53.232Z,45.11
2018-06-21T12:19:57.577Z,46.03
2018-06-21T12:23:01.987Z,43.24
2018-06-21T12:26:06.345Z,42.45
2018-06-21T12:29:10.774Z,42.38
2018-06-21T12:32:15.300Z,41.42
2018-06-21T12:35:19.652Z,41.20
2018-06-21T12:38:23.969Z,43.11
2018-06-21T12:41:28.428Z,48.61
2018-06-21T12:44:33.190Z,50.47
2018-06-21T12:47:37.601Z,51.19
2018-06-21T12:50:41.920Z,51.06
2018-06-21T12:53:46.970Z,51.18
2018-06-21T12:56:51.339Z,51.52
2018-06-21T12:59:55.693Z,51.31
2018-06-21T13:03:00.367Z,50.48
2018-06-21T13:06:04.742Z,51.03
2018-06-21T13:09:26.135Z,50.52
2018-06-21T13:12:48.832Z,51.49
2018-06-21T13:15:53.562Z,50.75
2018-06-21T13:18:57.698Z,50.89
2018-06-21T13:22:02.093Z,52.32
2018-06-21T13:25:06.645Z,52.19
2018-06-21T13:28:11.066Z,51.58
2018-06-21T13:31:15.409Z,51.32
2018-06-21T13:34:20.604Z,51.93
2018-06-21T13:37:25.105Z,51.73
2018-06-21T13:40:29.489Z,50.30
2018-06-21T13:43:35.454Z,51.44
2018-06-21T13:46:39.814Z,50.77
2018-06-21T13:49:44.573Z,51.22
2018-06-21T13:52:48.983Z,49.33
2018-06-21T13:55:53.863Z,49.61
2018-06-21T13:58:58.068Z,47.86
2018-06-21T14:02:02.421Z,46.93
2018-06-21T14:05:06.754Z,45.86
2018-06-21T14:08:11.217Z,47.49
2018-06-21T14:11:15.545Z,49.57
2018-06-21T14:14:19.964Z,50.68
2018-06-21T14:17:25.321Z,51.23
2018-06-21T14:20:29.861Z,52.02
2018-06-21T14:23:35.550Z,51.52
2018-06-21T14:26:40.273Z,53.25
2018-06-21T14:29:45.858Z,53.23
2018-06-21T14:32:50.314Z,54.12
2018-06-21T14:35:54.745Z,53.99
2018-06-21T14:38:59.613Z,54.33
2018-06-21T14:42:03.942Z,54.17
2018-06-21T14:45:08.222Z,52.80
2018-06-21T14:48:12.682Z,54.01
2018-06-21T14:51:17.064Z,53.66
2018-06-21T14:54:21.435Z,52.61
2018-06-21T14:57:25.768Z,52.01
2018-06-21T15:00:30.152Z,52.34
2018-06-21T15:03:34.747Z,53.24
2018-06-21T15:06:39.170Z,52.86
2018-06-21T15:09:43.537Z,52.66
2018-06-21T15:12:47.919Z,52.65
2018-06-21T15:15:52.334Z,54.63
2018-06-21T15:18:56.908Z,54.08
2018-06-21T15:22:02.625Z,52.30
2018-06-21T15:25:07.409Z,53.07
2018-06-21T15:28:12.000Z,52.14
2018-06-21T15:31:16.612Z,49.61
2018-06-21T15:34:21.397Z,49.52
2018-06-21T15:37:25.872Z,50.10
2018-06-21T15:40:30.300Z,49.06
2018-06-21T15:43:35.473Z,50.04
2018-06-21T15:46:40.726Z,48.58
2018-06-21T15:49:45.017Z,49.14
2018-06-21T15:52:49.478Z,50.14
2018-06-21T15:55:53.867Z,48.52
2018-06-21T15:58:58.215Z,47.67
2018-06-21T16:02:02.576Z,48.44
2018-06-21T16:05:07.101Z,45.39
2018-06-21T16:08:11.741Z,46.61
2018-06-21T16:11:16.057Z,44.03
2018-06-21T16:14:20.739Z,46.21
2018-06-21T16:17:25.350Z,43.55
2018-06-21T16:20:29.711Z,44.39
2018-06-21T16:23:34.306Z,43.87
2018-06-21T16:26:39.011Z,42.84
2018-06-21T16:29:43.415Z,43.65
2018-06-21T16:32:47.931Z,45.00
2018-06-21T16:35:52.361Z,45.31
2018-06-21T16:42:00.711Z,44.32
2018-06-21T16:45:05.373Z,44.01
2018-06-21T16:48:10.573Z,41.40
2018-06-21T16:51:15.026Z,44.12
2018-06-21T16:54:19.532Z,44.47
2018-06-21T16:57:23.962Z,43.43
2018-06-21T17:00:28.373Z,44.87
2018-06-21T17:03:33.076Z,43.08
2018-06-21T17:06:38.034Z,43.46
2018-06-21T17:09:42.537Z,44.48
2018-06-21T17:12:47.011Z,43.10
2018-06-21T17:15:51.469Z,43.44
2018-06-21T17:18:57.076Z,44.70
2018-06-21T17:22:01.693Z,44.51
2018-06-21T17:25:06.198Z,45.24
2018-06-21T17:28:11.420Z,45.22
2018-06-21T17:31:15.928Z,44.19
2018-06-21T17:34:20.526Z,43.61
2018-06-21T17:37:26.779Z,44.53
2018-06-21T17:40:31.337Z,43.70
2018-06-21T17:43:36.814Z,43.77
2018-06-21T17:46:44.387Z,45.94
2018-06-21T17:49:48.935Z,46.45
2018-06-21T17:52:53.375Z,45.55
2018-06-21T17:55:57.869Z,47.77
2018-06-21T17:59:02.226Z,47.06
2018-06-21T18:02:06.581Z,48.90
2018-06-21T18:05:11.221Z,49.08
2018-06-21T18:08:15.670Z,49.86
2018-06-21T18:11:22.450Z,50.43
2018-06-21T18:14:26.938Z,48.96
2018-06-21T18:17:31.611Z,50.11
2018-06-21T18:20:36.480Z,49.65
2018-06-21T18:23:42.993Z,50.89
2018-06-21T18:26:47.494Z,52.25
2018-06-21T18:29:51.974Z,52.46
2018-06-21T18:32:57.192Z,53.08
2018-06-21T18:36:03.606Z,53.78
2018-06-21T18:39:11.452Z,52.68
2018-06-21T18:42:15.995Z,51.98
2018-06-21T18:45:20.669Z,52.55
2018-06-21T18:48:25.069Z,53.43
2018-06-21T18:51:30.685Z,55.66
2018-06-21T18:54:35.373Z,57.28
2018-06-21T18:57:40.174Z,58.71
2018-06-21T19:00:44.490Z,58.83
2018-06-21T19:03:48.877Z,59.43
2018-06-21T19:06:58.596Z,59.21
2018-06-21T19:10:08.286Z,60.23
2018-06-21T19:13:12.843Z,60.30
2018-06-21T19:16:17.871Z,60.38
2018-06-21T19:19:22.262Z,60.55
2018-06-21T19:22:26.860Z,60.61
2018-06-21T19:25:31.404Z,61.15
2018-06-21T19:28:35.846Z,61.29
2018-06-21T19:31:40.422Z,60.59
2018-06-21T19:34:45.675Z,61.13
2018-06-21T19:37:49.906Z,61.28
2018-06-21T19:40:54.186Z,61.22
2018-06-21T19:43:58.845Z,61.69
2018-06-21T19:47:04.661Z,61.99
2018-06-21T19:50:10.156Z,62.57
2018-06-21T19:53:14.642Z,61.96
2018-06-21T19:56:19.460Z,62.02
2018-06-21T19:59:26.189Z,61.37
2018-06-21T20:02:36.664Z,61.63
2018-06-21T20:05:41.025Z,59.46
2018-06-21T20:08:45.388Z,59.05
2018-06-21T20:11:49.834Z,59.20
2018-06-21T20:14:54.234Z,58.48
2018-06-21T20:17:59.831Z,58.96
2018-06-21T20:21:04.298Z,59.92
2018-06-21T20:24:09.533Z,60.21
2018-06-21T20:27:14.045Z,60.52
2018-06-21T20:30:19.198Z,60.51
2018-06-21T20:33:23.749Z,61.43
2018-06-21T20:36:29.470Z,61.32
2018-06-21T20:40:03.039Z,62.20
2018-06-21T20:43:08.917Z,60.04
2018-06-21T20:46:13.381Z,60.03
2018-06-21T20:49:17.715Z,59.62
2018-06-21T20:52:27.538Z,59.45
2018-06-21T20:55:32.438Z,58.20
2018-06-21T20:58:37.246Z,60.89
2018-06-21T21:01:42.003Z,60.25
2018-06-21T21:05:14.094Z,60.57
2018-06-21T21:08:18.390Z,59.97
2018-06-21T21:11:22.773Z,58.08
2018-06-21T21:14:27.084Z,58.02
2018-06-21T21:17:31.537Z,58.59
2018-06-21T21:20:35.964Z,56.99
2018-06-21T21:23:40.264Z,55.96
2018-06-21T21:26:44.671Z,55.42
2018-06-21T21:29:49.312Z,55.40
2018-06-21T21:32:53.726Z,56.83
2018-06-21T21:35:58.168Z,59.03
2018-06-21T21:39:03.265Z,60.11
2018-06-21T21:42:07.662Z,62.01
2018-06-21T21:45:12.094Z,61.62
2018-06-21T21:48:16.587Z,60.97
2018-06-21T21:51:20.918Z,58.93
2018-06-21T21:54:25.232Z,57.69
2018-06-21T21:57:30.200Z,53.83
2018-06-21T22:00:46.470Z,52.10
2018-06-21T22:03:50.785Z,51.73
2018-06-21T22:06:55.524Z,48.89
2018-06-21T22:09:59.830Z,46.70
2018-06-21T22:13:04.192Z,47.31
2018-06-21T22:16:08.609Z,45.90
2018-06-21T22:19:12.945Z,43.79
2018-06-21T22:22:17.335Z,44.50
2018-06-21T22:25:21.614Z,44.28
2018-06-21T22:28:26.452Z,45.56
2018-06-21T22:31:30.952Z,46.92
2018-06-21T22:34:35.239Z,46.99
2018-06-21T22:37:39.523Z,48.70
2018-06-21T22:40:43.894Z,48.89
2018-06-21T22:43:48.246Z,47.88
2018-06-21T22:46:53.466Z,46.64
2018-06-21T22:49:57.777Z,45.61
2018-06-21T22:53:02.073Z,43.91
2018-06-21T22:56:06.508Z,44.32
2018-06-21T22:59:11.024Z,45.77
2018-06-21T23:02:15.467Z,46.15
2018-06-21T23:05:19.815Z,45.71
2018-06-21T23:08:24.358Z,45.48
2018-06-21T23:11:28.831Z,44.23
2018-06-21T23:14:33.339Z,44.05
2018-06-21T23:17:37.742Z,43.95
2018-06-21T23:20:42.063Z,44.02
2018-06-21T23:23:47.298Z,44.83
2018-06-21T23:26:51.925Z,46.58
2018-06-21T23:29:56.381Z,46.49
2018-06-21T23:33:00.698Z,46.37
2018-06-21T23:36:05.171Z,45.63
2018-06-21T23:39:11.196Z,46.20
2018-06-21T23:42:15.654Z,45.03
2018-06-21T23:45:19.958Z,45.78
2018-06-21T23:48:24.317Z,45.45
2018-06-21T23:51:29.323Z,45.25
2018-06-21T23:54:33.612Z,45.59
2018-06-21T23:57:38.350Z,44.85
